createdAt,value
2018-08-19T00:00:49.483Z,19.20
2018-08-19T00:03:18.401Z,19.20
2018-08-19T00:05:47.045Z,19.30
2018-08-19T00:08:15.741Z,19.20
2018-08-19T00:10:55.318Z,19.20
2018-08-19T00:13:23.922Z,19.10
2018-08-19T00:15:52.578Z,19.10
2018-08-19T00:18:21.327Z,19.20
2018-08-19T00:20:50.001Z,19.20
2018-08-19T00:23:18.598Z,19.30
2018-08-19T00:25:47.257Z,19.30
2018-08-19T00:28:17.102Z,19.30
2018-08-19T00:30:45.841Z,19.20
2018-08-19T00:33:14.699Z,19.20
2018-08-19T00:35:43.421Z,19.20
2018-08-19T00:38:13.623Z,19.20
2018-08-19T00:40:42.791Z,19.20
2018-08-19T00:43:11.437Z,19.20
2018-08-19T00:45:40.064Z,19.10
2018-08-19T00:48:10.673Z,19.00
2018-08-19T00:50:39.478Z,19.00
2018-08-19T00:53:09.589Z,19.00
2018-08-19T00:55:43.769Z,18.90
2018-08-19T00:58:18.759Z,18.90
2018-08-19T01:00:47.481Z,18.90
2018-08-19T01:03:16.167Z,18.90
2018-08-19T01:05:44.861Z,18.80
2018-08-19T01:08:14.493Z,18.80
2018-08-19T01:10:43.260Z,18.70
2018-08-19T01:13:13.004Z,18.60
2018-08-19T01:15:41.677Z,18.60
2018-08-19T01:18:10.371Z,18.40
2018-08-19T01:20:39.068Z,18.40
2018-08-19T01:23:07.721Z,18.30
2018-08-19T01:25:36.469Z,18.30
2018-08-19T01:28:05.132Z,18.20
2018-08-19T01:30:33.812Z,18.10
2018-08-19T01:33:02.459Z,18.10
2018-08-19T01:35:36.377Z,18.10
2018-08-19T01:38:06.284Z,18.10
2018-08-19T01:40:34.892Z,18.10
2018-08-19T01:43:05.613Z,18.00
2018-08-19T01:45:35.467Z,17.90
2018-08-19T01:48:04.206Z,17.80
2018-08-19T01:50:32.944Z,17.80
2018-08-19T01:53:01.600Z,17.80
2018-08-19T01:55:37.363Z,17.80
2018-08-19T01:58:06.324Z,17.80
2018-08-19T02:00:35.018Z,17.70
2018-08-19T02:03:04.921Z,17.60
2018-08-19T02:05:33.569Z,17.50
2018-08-19T02:08:03.449Z,17.50
2018-08-19T02:10:33.293Z,17.40
2018-08-19T02:13:02.171Z,17.30
2018-08-19T02:15:31.778Z,17.30
2018-08-19T02:18:06.311Z,17.30
2018-08-19T02:20:39.221Z,17.40
2018-08-19T02:23:09.429Z,17.30
2018-08-19T02:25:45.288Z,17.40
2018-08-19T02:28:14.722Z,17.40
2018-08-19T02:30:49.816Z,17.40
2018-08-19T02:33:18.513Z,17.40
2018-08-19T02:35:55.255Z,17.40
2018-08-19T02:38:24.137Z,17.40
2018-08-19T02:40:53.629Z,17.40
2018-08-19T02:43:22.531Z,17.30
2018-08-19T02:45:51.235Z,17.30
2018-08-19T02:48:28.479Z,17.30
2018-08-19T02:50:57.095Z,17.30
2018-08-19T02:53:25.654Z,17.40
2018-08-19T02:55:54.234Z,17.40
2018-08-19T02:58:22.755Z,17.30
2018-08-19T03:00:52.425Z,17.30
2018-08-19T03:03:21.064Z,17.30
2018-08-19T03:05:54.019Z,17.40
2018-08-19T03:08:22.561Z,17.30
2018-08-19T03:10:51.228Z,17.30
2018-08-19T03:13:19.788Z,17.30
2018-08-19T03:15:48.547Z,17.30
2018-08-19T03:18:17.334Z,17.40
2018-08-19T03:20:45.929Z,17.40
2018-08-19T03:23:14.566Z,17.50
2018-08-19T03:25:43.150Z,17.50
2018-08-19T03:28:11.773Z,17.40
2018-08-19T03:30:47.366Z,17.50
2018-08-19T03:33:15.996Z,17.50
2018-08-19T03:35:44.720Z,17.60
2018-08-19T03:38:14.481Z,17.50
2018-08-19T03:40:43.132Z,17.50
2018-08-19T03:43:12.217Z,17.50
2018-08-19T03:45:40.841Z,17.40
2018-08-19T03:48:09.460Z,17.50
2018-08-19T03:50:38.443Z,17.50
2018-08-19T03:53:07.049Z,17.40
2018-08-19T03:55:38.125Z,17.40
2018-08-19T03:58:08.046Z,17.40
2018-08-19T04:00:38.596Z,17.40
2018-08-19T04:03:14.652Z,17.40
2018-08-19T04:05:49.648Z,17.30
2018-08-19T04:08:18.365Z,17.30
2018-08-19T04:10:47.812Z,17.20
2018-08-19T04:13:35.501Z,17.10
2018-08-19T04:16:05.252Z,17.10
2018-08-19T04:18:39.729Z,17.10
2018-08-19T04:21:12.596Z,17.10
2018-08-19T04:23:44.177Z,17.10
2018-08-19T04:26:12.854Z,17.10
2018-08-19T04:28:42.538Z,17.10
2018-08-19T04:31:16.397Z,17.10
2018-08-19T04:33:46.358Z,17.10
2018-08-19T04:36:16.575Z,17.20
2018-08-19T04:38:45.247Z,17.30
2018-08-19T04:41:14.255Z,17.30
2018-08-19T04:43:43.385Z,17.30
2018-08-19T04:46:12.005Z,17.30
2018-08-19T04:48:40.554Z,17.40
2018-08-19T04:51:09.104Z,17.50
2018-08-19T04:53:37.666Z,17.40
2018-08-19T04:56:06.258Z,17.40
2018-08-19T04:58:34.873Z,17.50
2018-08-19T05:01:03.504Z,17.60
2018-08-19T05:03:32.195Z,17.50
2018-08-19T05:06:01.610Z,17.60
2018-08-19T05:08:30.460Z,17.60
2018-08-19T05:10:58.881Z,17.70
2018-08-19T05:13:29.098Z,17.80
2018-08-19T05:15:57.938Z,17.80
2018-08-19T05:18:26.605Z,17.90
2018-08-19T05:21:02.424Z,18.00
2018-08-19T05:23:31.013Z,18.10
2018-08-19T05:25:59.562Z,18.10
2018-08-19T05:28:28.199Z,18.20
2018-08-19T05:30:56.815Z,18.30
2018-08-19T05:33:25.413Z,18.30
2018-08-19T05:35:54.055Z,18.40
2018-08-19T05:38:22.667Z,18.40
2018-08-19T05:40:56.679Z,18.50
2018-08-19T05:43:25.252Z,18.60
2018-08-19T05:45:55.988Z,18.70
2018-08-19T05:48:24.853Z,18.80
2018-08-19T05:50:53.958Z,18.80
2018-08-19T05:53:22.641Z,18.90
2018-08-19T05:55:51.495Z,19.10
2018-08-19T05:58:20.631Z,19.10
2018-08-19T06:00:53.224Z,19.30
2018-08-19T06:03:22.127Z,19.20
2018-08-19T06:05:50.736Z,19.30
2018-08-19T06:08:19.369Z,19.40
2018-08-19T06:10:48.102Z,19.50
2018-08-19T06:13:16.712Z,19.40
2018-08-19T06:15:45.384Z,19.50
2018-08-19T06:18:13.965Z,19.70
2018-08-19T06:20:42.570Z,19.70
2018-08-19T06:23:11.234Z,19.60
2018-08-19T06:25:39.917Z,19.70
2018-08-19T06:28:08.562Z,19.90
2018-08-19T06:30:37.156Z,20.00
2018-08-19T06:33:05.816Z,20.20
2018-08-19T06:35:34.424Z,20.30
2018-08-19T06:38:03.095Z,20.30
2018-08-19T06:40:31.684Z,20.30
2018-08-19T06:43:00.304Z,20.30
2018-08-19T06:45:28.872Z,20.40
2018-08-19T06:47:57.619Z,20.50
2018-08-19T06:50:28.676Z,20.50
2018-08-19T06:52:57.411Z,20.50
2018-08-19T06:55:26.232Z,20.60
2018-08-19T06:57:56.957Z,20.70
2018-08-19T07:00:26.821Z,20.80
2018-08-19T07:02:56.662Z,20.80
2018-08-19T07:05:25.412Z,20.90
2018-08-19T07:07:54.180Z,21.00
2018-08-19T07:10:29.394Z,21.10
2018-08-19T07:13:03.262Z,21.40
2018-08-19T07:15:31.898Z,21.50
2018-08-19T07:18:00.617Z,21.70
2018-08-19T07:20:30.391Z,21.80
2018-08-19T07:22:59.227Z,21.90
2018-08-19T07:25:27.925Z,21.90
2018-08-19T07:27:56.666Z,22.20
2018-08-19T07:30:25.201Z,22.40
2018-08-19T07:32:53.826Z,22.60
2018-08-19T07:35:22.446Z,22.80
2018-08-19T07:37:51.051Z,23.10
2018-08-19T07:40:19.737Z,23.30
2018-08-19T07:42:48.421Z,23.60
2018-08-19T07:45:18.106Z,23.80
2018-08-19T07:47:46.733Z,24.30
2018-08-19T07:50:15.354Z,24.50
2018-08-19T07:52:43.998Z,24.90
2018-08-19T07:55:12.726Z,24.90
2018-08-19T07:57:42.029Z,25.00
2018-08-19T08:00:11.301Z,25.20
2018-08-19T08:02:41.083Z,25.30
2018-08-19T08:05:10.749Z,25.50
2018-08-19T08:07:48.572Z,25.60
2018-08-19T08:10:19.436Z,25.80
2018-08-19T08:12:54.450Z,26.00
2018-08-19T08:15:23.160Z,26.00
2018-08-19T08:17:51.841Z,25.60
2018-08-19T08:20:20.422Z,25.60
2018-08-19T08:22:49.069Z,25.70
2018-08-19T08:25:17.632Z,25.80
2018-08-19T08:27:46.188Z,25.90
2018-08-19T08:30:16.851Z,25.70
2018-08-19T08:32:47.503Z,25.40
2018-08-19T08:35:16.105Z,25.50
2018-08-19T08:37:44.689Z,25.50
2018-08-19T08:40:13.411Z,25.50
2018-08-19T08:42:43.270Z,25.60
2018-08-19T08:45:13.181Z,25.70
2018-08-19T08:47:42.369Z,25.80
2018-08-19T08:50:12.190Z,25.80
2018-08-19T08:52:43.657Z,25.90
2018-08-19T08:55:13.473Z,25.90
2018-08-19T08:57:42.308Z,25.70
2018-08-19T09:00:12.659Z,25.80
2018-08-19T09:02:41.459Z,26.00
2018-08-19T09:05:11.799Z,26.10
2018-08-19T09:07:41.038Z,26.10
2018-08-19T09:10:12.559Z,26.00
2018-08-19T09:12:52.524Z,26.00
2018-08-19T09:15:21.587Z,26.10
2018-08-19T09:17:50.482Z,26.20
2018-08-19T09:20:19.332Z,26.30
2018-08-19T09:22:48.662Z,26.40
2018-08-19T09:25:18.539Z,26.50
2018-08-19T09:27:47.496Z,26.70
2018-08-19T09:30:34.935Z,26.70
2018-08-19T09:33:03.727Z,26.80
2018-08-19T09:35:33.793Z,26.60
2018-08-19T09:38:08.853Z,26.60
2018-08-19T09:40:37.766Z,26.90
2018-08-19T09:43:06.942Z,27.00
2018-08-19T09:45:35.654Z,27.20
2018-08-19T09:48:05.221Z,27.30
2018-08-19T09:50:36.155Z,27.50
2018-08-19T09:53:06.320Z,27.80
2018-08-19T09:55:40.436Z,27.90
2018-08-19T09:58:14.825Z,27.90
2018-08-19T10:00:48.982Z,28.20
2018-08-19T10:03:18.044Z,28.40
2018-08-19T10:05:47.136Z,28.40
2018-08-19T10:08:16.092Z,28.60
2018-08-19T10:10:47.212Z,28.50
2018-08-19T10:13:16.333Z,28.40
2018-08-19T10:15:45.218Z,28.60
2018-08-19T10:18:14.143Z,28.80
2018-08-19T10:20:43.221Z,29.00
2018-08-19T10:23:13.102Z,29.10
2018-08-19T10:25:42.062Z,29.10
2018-08-19T10:28:11.023Z,29.10
2018-08-19T10:30:44.851Z,29.20
2018-08-19T10:33:13.930Z,29.40
2018-08-19T10:35:42.960Z,29.50
2018-08-19T10:38:11.809Z,29.50
2018-08-19T10:40:40.840Z,29.50
2018-08-19T10:43:10.827Z,29.40
2018-08-19T10:45:42.231Z,29.40
2018-08-19T10:48:12.644Z,29.50
2018-08-19T10:50:41.609Z,29.60
2018-08-19T10:53:16.648Z,29.70
2018-08-19T10:55:46.928Z,29.80
2018-08-19T10:58:15.995Z,29.70
2018-08-19T11:00:45.941Z,29.70
2018-08-19T11:03:18.440Z,29.80
2018-08-19T11:05:48.191Z,29.70
2018-08-19T11:08:17.265Z,29.70
2018-08-19T11:10:46.537Z,29.70
2018-08-19T11:13:21.076Z,29.90
2018-08-19T11:15:51.785Z,29.90
2018-08-19T11:18:26.306Z,30.10
2018-08-19T11:20:57.862Z,30.10
2018-08-19T11:23:27.621Z,30.00
2018-08-19T11:25:57.699Z,29.80
2018-08-19T11:28:34.562Z,30.00
2018-08-19T11:31:04.090Z,30.20
2018-08-19T11:33:39.071Z,30.20
2018-08-19T11:36:09.311Z,30.40
2018-08-19T11:38:38.993Z,30.40
2018-08-19T11:41:09.224Z,30.40
2018-08-19T11:43:40.828Z,30.50
2018-08-19T11:46:09.875Z,30.60
2018-08-19T11:48:39.886Z,30.70
2018-08-19T11:51:08.713Z,30.70
2018-08-19T11:53:37.839Z,30.70
2018-08-19T11:56:06.952Z,30.70
2018-08-19T11:58:41.077Z,30.70
2018-08-19T12:01:15.122Z,30.60
2018-08-19T12:03:59.269Z,30.60
2018-08-19T12:06:29.237Z,30.60
2018-08-19T12:08:59.620Z,30.60
2018-08-19T12:11:32.673Z,30.70
2018-08-19T12:14:03.818Z,30.90
2018-08-19T12:16:40.747Z,31.20
2018-08-19T12:19:14.848Z,31.20
2018-08-19T12:22:06.155Z,31.30
2018-08-19T12:24:38.914Z,31.10
2018-08-19T12:27:09.989Z,31.10
2018-08-19T12:29:40.087Z,31.00
2018-08-19T12:32:19.350Z,31.10
2018-08-19T12:34:52.097Z,31.20
2018-08-19T12:37:22.676Z,31.40
2018-08-19T12:39:51.715Z,31.40
2018-08-19T12:42:20.920Z,31.20
2018-08-19T12:44:52.104Z,31.20
2018-08-19T12:47:23.521Z,31.30
2018-08-19T12:50:07.769Z,31.40
2018-08-19T12:52:37.023Z,31.50
2018-08-19T12:55:09.957Z,31.50
2018-08-19T12:57:39.874Z,31.50
2018-08-19T13:00:15.783Z,31.50
2018-08-19T13:02:45.640Z,31.50
2018-08-19T13:05:15.356Z,31.50
2018-08-19T13:07:44.398Z,31.40
2018-08-19T13:10:13.104Z,31.40
2018-08-19T13:12:52.821Z,31.50
2018-08-19T13:15:22.170Z,31.60
2018-08-19T13:17:50.873Z,31.50
2018-08-19T13:20:19.466Z,31.40
2018-08-19T13:22:54.291Z,31.50
2018-08-19T13:25:24.719Z,31.50
2018-08-19T13:27:53.372Z,31.60
2018-08-19T13:30:22.462Z,31.70
2018-08-19T13:32:51.847Z,31.70
2018-08-19T13:35:20.857Z,31.80
2018-08-19T13:37:49.880Z,31.40
2018-08-19T13:40:18.770Z,31.50
2018-08-19T13:42:47.683Z,31.60
2018-08-19T13:45:20.673Z,31.60
2018-08-19T13:47:52.051Z,31.60
2018-08-19T13:50:20.970Z,31.80
2018-08-19T13:52:50.978Z,31.90
2018-08-19T13:55:20.852Z,32.10
2018-08-19T13:57:49.828Z,32.20
2018-08-19T14:00:20.403Z,32.30
2018-08-19T14:02:50.631Z,32.20
2018-08-19T14:05:23.078Z,32.40
2018-08-19T14:07:52.394Z,32.30
2018-08-19T14:10:21.602Z,32.40
2018-08-19T14:12:50.672Z,32.40
2018-08-19T14:15:20.326Z,32.50
2018-08-19T14:17:49.554Z,32.40
2018-08-19T14:20:18.733Z,32.30
2018-08-19T14:22:48.033Z,32.30
2018-08-19T14:25:17.282Z,32.20
2018-08-19T14:27:47.647Z,32.00
2018-08-19T14:30:16.855Z,32.20
2018-08-19T14:32:47.278Z,32.20
2018-08-19T14:35:22.242Z,32.30
2018-08-19T14:37:51.271Z,32.30
2018-08-19T14:40:20.196Z,32.50
2018-08-19T14:42:49.551Z,32.70
2018-08-19T14:45:19.010Z,33.00
2018-08-19T14:47:48.319Z,33.20
2018-08-19T14:50:19.498Z,33.30
2018-08-19T14:52:48.334Z,33.10
2018-08-19T14:55:17.103Z,33.00
2018-08-19T14:57:45.776Z,32.80
2018-08-19T15:00:16.303Z,32.50
2018-08-19T15:02:45.236Z,32.60
2018-08-19T15:05:15.730Z,32.40
2018-08-19T15:07:44.984Z,32.60
2018-08-19T15:10:22.726Z,32.50
2018-08-19T15:12:51.457Z,32.60
2018-08-19T15:15:20.641Z,32.50
2018-08-19T15:17:54.634Z,32.60
2018-08-19T15:20:37.925Z,32.50
2018-08-19T15:23:24.366Z,32.50
2018-08-19T15:25:53.335Z,32.60
2018-08-19T15:28:22.346Z,32.60
2018-08-19T15:30:51.353Z,32.60
2018-08-19T15:33:21.640Z,32.60
2018-08-19T15:35:50.242Z,32.60
2018-08-19T15:38:19.997Z,32.50
2018-08-19T15:40:49.745Z,32.30
2018-08-19T15:43:18.670Z,32.10
2018-08-19T15:45:47.405Z,32.10
2018-08-19T15:48:16.070Z,32.10
2018-08-19T15:50:45.670Z,32.20
2018-08-19T15:53:14.385Z,32.10
2018-08-19T15:55:43.020Z,32.10
2018-08-19T15:58:11.560Z,32.00
2018-08-19T16:00:41.469Z,32.00
2018-08-19T16:03:12.385Z,32.00
2018-08-19T16:05:40.986Z,32.00
2018-08-19T16:08:09.614Z,32.10
2018-08-19T16:10:38.229Z,32.00
2018-08-19T16:13:09.562Z,31.90
2018-08-19T16:15:40.236Z,32.10
2018-08-19T16:18:09.001Z,32.40
2018-08-19T16:20:37.722Z,32.90
2018-08-19T16:23:06.362Z,33.40
2018-08-19T16:25:34.951Z,33.60
2018-08-19T16:28:04.522Z,34.00
2018-08-19T16:30:33.095Z,34.40
2018-08-19T16:33:01.689Z,34.60
2018-08-19T16:35:30.345Z,34.80
2018-08-19T16:37:58.877Z,35.20
2018-08-19T16:40:27.512Z,34.80
2018-08-19T16:42:58.233Z,34.50
2018-08-19T16:45:26.878Z,34.20
2018-08-19T16:47:55.501Z,33.80
2018-08-19T16:50:24.170Z,33.30
2018-08-19T16:52:52.727Z,32.90
2018-08-19T16:55:21.272Z,32.40
2018-08-19T16:57:49.814Z,32.30
2018-08-19T17:00:18.664Z,32.00
2018-08-19T17:02:47.576Z,31.80
2018-08-19T17:05:28.591Z,31.80
2018-08-19T17:07:58.520Z,31.80
2018-08-19T17:10:28.317Z,31.70
2018-08-19T17:12:57.463Z,31.60
2018-08-19T17:15:26.271Z,31.70
2018-08-19T17:17:54.841Z,31.90
2018-08-19T17:20:23.343Z,32.10
2018-08-19T17:22:51.930Z,32.20
2018-08-19T17:25:20.550Z,32.40
2018-08-19T17:27:49.113Z,32.40
2018-08-19T17:30:18.894Z,32.50
2018-08-19T17:32:53.977Z,32.60
2018-08-19T17:35:23.573Z,32.60
2018-08-19T17:37:53.000Z,32.60
2018-08-19T17:40:21.531Z,32.50
2018-08-19T17:42:50.165Z,32.30
2018-08-19T17:45:18.806Z,32.30
2018-08-19T17:47:47.679Z,32.00
2018-08-19T17:50:30.262Z,32.00
2018-08-19T17:53:00.159Z,31.90
2018-08-19T17:55:28.785Z,31.70
2018-08-19T17:57:58.750Z,31.50
2018-08-19T18:00:27.444Z,31.10
2018-08-19T18:02:56.057Z,30.70
2018-08-19T18:05:24.793Z,30.10
2018-08-19T18:07:54.508Z,29.60
2018-08-19T18:10:23.084Z,29.20
2018-08-19T18:12:51.982Z,28.70
2018-08-19T18:15:20.709Z,28.30
2018-08-19T18:17:58.463Z,27.90
2018-08-19T18:20:30.391Z,27.60
2018-08-19T18:22:59.225Z,27.20
2018-08-19T18:25:28.148Z,26.80
2018-08-19T18:27:57.146Z,26.50
2018-08-19T18:30:27.628Z,26.10
2018-08-19T18:32:56.253Z,26.00
2018-08-19T18:35:24.924Z,25.80
2018-08-19T18:37:53.538Z,25.70
2018-08-19T18:40:31.592Z,25.60
2018-08-19T18:43:00.208Z,25.50
2018-08-19T18:45:28.990Z,25.30
2018-08-19T18:48:01.677Z,25.20
2018-08-19T18:50:30.351Z,25.10
2018-08-19T18:52:58.893Z,25.00
2018-08-19T18:55:27.481Z,25.00
2018-08-19T18:57:56.994Z,24.80
2018-08-19T19:00:27.445Z,24.70
2018-08-19T19:02:57.583Z,24.60
2018-08-19T19:05:33.951Z,24.50
2018-08-19T19:08:07.859Z,24.50
2018-08-19T19:10:36.978Z,24.40
2018-08-19T19:13:05.838Z,24.30
2018-08-19T19:15:40.351Z,24.30
2018-08-19T19:18:11.386Z,24.20
2018-08-19T19:20:46.354Z,24.10
2018-08-19T19:23:14.934Z,24.10
2018-08-19T19:25:43.525Z,24.00
2018-08-19T19:28:12.043Z,24.00
2018-08-19T19:30:40.754Z,24.00
2018-08-19T19:33:12.808Z,23.80
2018-08-19T19:35:41.729Z,23.80
2018-08-19T19:38:10.575Z,23.70
2018-08-19T19:40:39.487Z,23.70
2018-08-19T19:43:08.076Z,23.60
2018-08-19T19:45:42.573Z,23.50
2018-08-19T19:48:11.673Z,23.40
2018-08-19T19:50:40.919Z,23.30
2018-08-19T19:53:09.428Z,23.20
2018-08-19T19:55:38.066Z,23.20
2018-08-19T19:58:06.620Z,23.10
2018-08-19T20:00:50.933Z,23.10
2018-08-19T20:03:19.990Z,23.10
2018-08-19T20:05:48.619Z,23.10
2018-08-19T20:08:17.447Z,23.00
2018-08-19T20:10:46.069Z,23.00
2018-08-19T20:13:14.754Z,23.00
2018-08-19T20:15:43.381Z,23.00
2018-08-19T20:18:11.986Z,23.00
2018-08-19T20:20:40.579Z,22.90
2018-08-19T20:23:26.658Z,22.80
2018-08-19T20:25:55.729Z,22.80
2018-08-19T20:28:24.338Z,22.70
2018-08-19T20:30:52.997Z,22.70
2018-08-19T20:33:25.806Z,22.60
2018-08-19T20:35:55.214Z,22.60
2018-08-19T20:38:24.185Z,22.60
2018-08-19T20:40:53.105Z,22.60
2018-08-19T20:43:22.800Z,22.60
2018-08-19T20:45:51.395Z,22.60
2018-08-19T20:48:21.022Z,22.50
2018-08-19T20:50:50.194Z,22.40
2018-08-19T20:53:19.220Z,22.40
2018-08-19T20:55:48.096Z,22.40
2018-08-19T20:58:16.667Z,22.40
2018-08-19T21:00:45.251Z,22.50
2018-08-19T21:03:13.890Z,22.40
2018-08-19T21:05:42.464Z,22.40
2018-08-19T21:08:12.930Z,22.20
2018-08-19T21:10:42.740Z,22.20
2018-08-19T21:13:12.682Z,22.20
2018-08-19T21:15:42.674Z,22.10
2018-08-19T21:18:11.337Z,22.00
2018-08-19T21:20:39.968Z,21.80
2018-08-19T21:23:08.588Z,21.80
2018-08-19T21:25:44.088Z,21.70
2018-08-19T21:28:12.905Z,21.50
2018-08-19T21:30:41.458Z,21.60
2018-08-19T21:33:10.440Z,21.60
2018-08-19T21:35:44.353Z,21.50
2018-08-19T21:38:13.085Z,21.40
2018-08-19T21:40:41.734Z,21.30
2018-08-19T21:43:10.642Z,21.30
2018-08-19T21:45:39.620Z,21.30
2018-08-19T21:48:12.929Z,21.10
2018-08-19T21:50:41.696Z,21.10
2018-08-19T21:53:15.225Z,21.10
2018-08-19T21:55:45.115Z,21.00
2018-08-19T21:58:13.758Z,20.90
2018-08-19T22:00:54.481Z,20.70
2018-08-19T22:03:28.394Z,20.70
2018-08-19T22:05:56.960Z,20.60
2018-08-19T22:08:25.596Z,20.70
2018-08-19T22:10:54.156Z,20.60
2018-08-19T22:13:22.773Z,20.60
2018-08-19T22:15:51.359Z,20.50
2018-08-19T22:18:23.603Z,20.50
2018-08-19T22:21:04.028Z,20.50
2018-08-19T22:23:38.053Z,20.40
2018-08-19T22:26:06.905Z,20.30
2018-08-19T22:28:35.494Z,20.30
2018-08-19T22:31:16.185Z,20.30
2018-08-19T22:33:48.133Z,20.40
2018-08-19T22:36:17.125Z,20.40
2018-08-19T22:38:45.806Z,20.40
2018-08-19T22:41:14.510Z,20.50
2018-08-19T22:43:43.125Z,20.40
2018-08-19T22:46:11.685Z,20.40
2018-08-19T22:48:43.315Z,20.30
2018-08-19T22:51:12.910Z,20.40
2018-08-19T22:53:41.522Z,20.40
2018-08-19T22:56:10.085Z,20.40
2018-08-19T22:58:38.712Z,20.30
2018-08-19T23:01:07.678Z,20.20
2018-08-19T23:03:36.369Z,20.10
2018-08-19T23:06:05.028Z,20.10
2018-08-19T23:08:34.317Z,20.00
2018-08-19T23:11:03.992Z,20.00
2018-08-19T23:13:43.771Z,19.90
2018-08-19T23:16:13.135Z,19.90
2018-08-19T23:18:42.523Z,19.80
2018-08-19T23:21:11.529Z,19.70
2018-08-19T23:23:40.160Z,19.70
2018-08-19T23:26:08.798Z,19.70
2018-08-19T23:28:37.350Z,19.70
2018-08-19T23:31:05.912Z,19.70
2018-08-19T23:33:34.490Z,19.60
2018-08-19T23:36:03.247Z,19.70
2018-08-19T23:38:31.845Z,19.60
2018-08-19T23:41:00.421Z,19.50
2018-08-19T23:43:29.092Z,19.40
2018-08-19T23:45:57.708Z,19.40
2018-08-19T23:48:26.352Z,19.30
2018-08-19T23:50:54.885Z,19.20
2018-08-19T23:53:23.499Z,19.20
2018-08-19T23:55:52.085Z,19.20
2018-08-19T23:58:20.677Z,19.20
